createdAt,value
2023-04-26T00:00:52.766Z,66.23
2023-04-26T00:01:52.772Z,66.34
2023-04-26T00:02:52.932Z,66.28
2023-04-26T00:03:53.079Z,66.31
2023-04-26T00:04:52.905Z,66.20
2023-04-26T00:05:52.877Z,66.23
2023-04-26T00:06:52.838Z,66.08
2023-04-26T00:07:52.840Z,67.03
2023-04-26T00:08:53.138Z,66.48
2023-04-26T00:09:52.939Z,66.64
2023-04-26T00:10:52.934Z,66.27
2023-04-26T00:11:53.000Z,66.17
2023-04-26T00:12:52.990Z,65.83
2023-04-26T00:13:53.014Z,65.70
2023-04-26T00:14:53.061Z,65.59
2023-04-26T00:15:53.102Z,65.40
2023-04-26T00:16:53.123Z,65.36
2023-04-26T00:17:53.140Z,65.35
2023-04-26T00:18:53.425Z,65.42
2023-04-26T00:19:53.162Z,65.53
2023-04-26T00:20:53.188Z,65.43
2023-04-26T00:21:53.221Z,65.39
2023-04-26T00:22:53.253Z,65.23
2023-04-26T00:23:53.286Z,65.42
2023-04-26T00:24:53.323Z,65.29
2023-04-26T00:25:53.389Z,65.37
2023-04-26T00:26:53.464Z,65.26
2023-04-26T00:27:53.555Z,65.15
2023-04-26T00:28:53.960Z,64.95
2023-04-26T00:29:53.662Z,66.29
2023-04-26T00:30:53.725Z,65.67
2023-04-26T00:31:53.825Z,65.67
2023-04-26T00:32:53.891Z,65.64
2023-04-26T00:33:53.887Z,65.63
2023-04-26T00:34:53.946Z,65.58
2023-04-26T00:35:54.024Z,65.51
2023-04-26T00:36:54.075Z,65.39
2023-04-26T00:37:54.097Z,65.34
2023-04-26T00:38:54.279Z,65.14
2023-04-26T00:39:54.177Z,65.12
2023-04-26T00:40:54.209Z,65.22
2023-04-26T00:41:54.241Z,65.15
2023-04-26T00:42:54.276Z,65.61
2023-04-26T00:43:54.346Z,65.40
2023-04-26T00:44:55.192Z,65.32
2023-04-26T00:45:54.459Z,65.32
2023-04-26T00:46:54.490Z,65.14
2023-04-26T00:47:54.527Z,65.35
2023-04-26T00:48:54.758Z,65.44
2023-04-26T00:49:54.585Z,65.29
2023-04-26T00:50:54.634Z,65.41
2023-04-26T00:51:54.688Z,65.15
2023-04-26T00:52:54.730Z,65.20
2023-04-26T00:53:54.786Z,65.60
2023-04-26T00:54:54.808Z,65.57
2023-04-26T00:55:54.884Z,65.80
2023-04-26T00:56:54.878Z,65.56
2023-04-26T00:57:54.910Z,65.82
2023-04-26T00:58:55.213Z,66.20
2023-04-26T00:59:54.992Z,66.57
2023-04-26T01:00:55.027Z,66.82
2023-04-26T01:01:54.989Z,66.44
2023-04-26T01:02:55.150Z,66.17
2023-04-26T01:03:55.145Z,65.88
2023-04-26T01:04:55.064Z,66.08
2023-04-26T01:05:55.112Z,65.99
2023-04-26T01:06:55.154Z,66.05
2023-04-26T01:07:55.189Z,66.27
2023-04-26T01:08:55.208Z,66.10
2023-04-26T01:09:55.267Z,65.97
2023-04-26T01:10:55.318Z,65.89
2023-04-26T01:11:55.357Z,65.81
2023-04-26T01:12:55.411Z,66.00
2023-04-26T01:13:55.430Z,65.63
2023-04-26T01:14:55.450Z,65.10
2023-04-26T01:15:55.480Z,64.86
2023-04-26T01:16:55.566Z,65.07
2023-04-26T01:17:55.563Z,64.90
2023-04-26T01:18:55.531Z,64.90
2023-04-26T01:19:55.565Z,64.59
2023-04-26T01:20:55.611Z,64.52
2023-04-26T01:21:55.614Z,64.38
2023-04-26T01:22:55.635Z,64.31
2023-04-26T01:23:55.660Z,64.37
2023-04-26T01:24:55.661Z,64.46
2023-04-26T01:25:55.720Z,64.66
2023-04-26T01:26:55.756Z,64.77
2023-04-26T01:27:55.821Z,65.02
2023-04-26T01:28:55.840Z,65.53
2023-04-26T01:29:55.908Z,65.53
2023-04-26T01:30:55.937Z,65.17
2023-04-26T01:31:56.108Z,65.01
2023-04-26T01:32:56.084Z,65.15
2023-04-26T01:33:56.089Z,65.01
2023-04-26T01:34:56.120Z,64.86
2023-04-26T01:35:56.149Z,64.96
2023-04-26T01:36:56.194Z,65.24
2023-04-26T01:37:56.221Z,65.24
2023-04-26T01:38:56.281Z,65.27
2023-04-26T01:39:56.297Z,65.33
2023-04-26T01:40:56.323Z,65.39
2023-04-26T01:41:56.354Z,65.38
2023-04-26T01:42:56.379Z,65.36
2023-04-26T01:43:56.423Z,65.34
2023-04-26T01:44:56.464Z,65.34
2023-04-26T01:45:56.525Z,65.33
2023-04-26T01:46:56.567Z,65.69
2023-04-26T01:47:56.715Z,65.75
2023-04-26T01:48:56.691Z,65.49
2023-04-26T01:49:56.712Z,65.21
2023-04-26T01:50:56.751Z,65.20
2023-04-26T01:51:56.799Z,65.15
2023-04-26T01:52:56.830Z,65.22
2023-04-26T01:53:56.860Z,65.26
2023-04-26T01:54:56.888Z,65.24
2023-04-26T01:55:56.927Z,65.20
2023-04-26T01:56:56.941Z,65.10
2023-04-26T01:57:56.991Z,65.26
2023-04-26T01:58:57.039Z,65.16
2023-04-26T01:59:57.101Z,66.02
2023-04-26T02:00:57.156Z,66.20
2023-04-26T02:01:57.202Z,66.21
2023-04-26T02:02:57.262Z,65.55
2023-04-26T02:03:57.289Z,64.91
2023-04-26T02:04:57.412Z,65.05
2023-04-26T02:05:57.403Z,64.98
2023-04-26T02:06:57.456Z,65.61
2023-04-26T02:07:57.516Z,65.56
2023-04-26T02:08:57.625Z,66.59
2023-04-26T02:09:57.669Z,66.27
2023-04-26T02:10:57.767Z,66.42
2023-04-26T02:11:57.810Z,66.66
2023-04-26T02:12:57.884Z,67.32
2023-04-26T02:13:57.973Z,66.78
2023-04-26T02:14:58.019Z,67.16
2023-04-26T02:15:58.162Z,67.15
2023-04-26T02:16:58.194Z,67.17
2023-04-26T02:17:58.322Z,67.81
2023-04-26T02:18:58.368Z,67.64
2023-04-26T02:19:58.477Z,67.42
2023-04-26T02:20:58.515Z,67.12
2023-04-26T02:21:58.596Z,67.21
2023-04-26T02:22:58.674Z,66.95
2023-04-26T02:23:58.773Z,66.80
2023-04-26T02:24:58.869Z,66.56
2023-04-26T02:25:58.958Z,66.26
2023-04-26T02:26:58.990Z,66.21
2023-04-26T02:27:59.081Z,66.20
2023-04-26T02:28:59.108Z,66.29
2023-04-26T02:29:59.166Z,66.36
2023-04-26T02:30:59.287Z,66.48
2023-04-26T02:31:59.352Z,66.33
2023-04-26T02:32:59.572Z,66.00
2023-04-26T02:33:59.475Z,66.25
2023-04-26T02:34:59.564Z,65.91
2023-04-26T02:35:59.654Z,65.77
2023-04-26T02:36:59.710Z,65.69
2023-04-26T02:37:59.790Z,65.53
2023-04-26T02:38:59.878Z,65.48
2023-04-26T02:39:59.921Z,65.65
2023-04-26T02:40:59.994Z,65.78
2023-04-26T02:42:00.021Z,65.72
2023-04-26T02:43:00.073Z,65.48
2023-04-26T02:44:00.116Z,65.59
2023-04-26T02:45:00.161Z,65.48
2023-04-26T02:46:00.194Z,65.23
2023-04-26T02:47:00.318Z,65.28
2023-04-26T02:48:00.431Z,65.13
2023-04-26T02:49:00.460Z,65.24
2023-04-26T02:50:00.549Z,65.40
2023-04-26T02:51:00.660Z,65.68
2023-04-26T02:52:00.747Z,66.15
2023-04-26T02:53:00.774Z,66.63
2023-04-26T02:54:00.837Z,67.26
2023-04-26T02:55:00.893Z,67.78
2023-04-26T02:56:00.986Z,67.89
2023-04-26T02:57:01.062Z,68.50
2023-04-26T02:58:01.118Z,68.20
2023-04-26T02:59:01.220Z,68.44
2023-04-26T03:00:01.313Z,68.36
2023-04-26T03:01:01.990Z,68.57
2023-04-26T03:02:01.467Z,68.45
2023-04-26T03:03:01.626Z,68.26
2023-04-26T03:04:01.744Z,68.11
2023-04-26T03:05:01.666Z,67.98
2023-04-26T03:06:01.706Z,68.73
2023-04-26T03:07:01.777Z,70.26
2023-04-26T03:08:01.824Z,69.26
2023-04-26T03:09:01.802Z,68.86
2023-04-26T03:10:01.852Z,68.83
2023-04-26T03:11:01.885Z,68.26
2023-04-26T03:12:01.927Z,68.14
2023-04-26T03:13:02.010Z,67.97
2023-04-26T03:14:02.093Z,67.85
2023-04-26T03:15:02.219Z,67.80
2023-04-26T03:16:02.301Z,67.54
2023-04-26T03:17:02.467Z,67.33
2023-04-26T03:18:02.516Z,67.26
2023-04-26T03:19:02.523Z,67.26
2023-04-26T03:20:02.976Z,67.27
2023-04-26T03:21:02.677Z,67.26
2023-04-26T03:22:02.779Z,67.33
2023-04-26T03:23:02.826Z,67.60
2023-04-26T03:24:02.945Z,67.54
2023-04-26T03:25:02.970Z,67.46
2023-04-26T03:26:03.032Z,67.35
2023-04-26T03:27:03.115Z,67.17
2023-04-26T03:28:03.166Z,67.15
2023-04-26T03:29:03.238Z,67.19
2023-04-26T03:30:03.296Z,67.22
2023-04-26T03:31:03.373Z,67.14
2023-04-26T03:32:03.496Z,67.37
2023-04-26T03:33:03.499Z,67.37
2023-04-26T03:34:03.520Z,67.23
2023-04-26T03:35:03.548Z,66.89
2023-04-26T03:36:03.590Z,66.64
2023-04-26T03:37:03.659Z,66.57
2023-04-26T03:38:03.722Z,66.52
2023-04-26T03:39:03.869Z,66.43
2023-04-26T03:40:04.001Z,66.65
2023-04-26T03:41:03.969Z,66.60
2023-04-26T03:42:04.024Z,66.55
2023-04-26T03:43:04.071Z,66.27
2023-04-26T03:44:04.104Z,66.15
2023-04-26T03:45:04.146Z,66.35
2023-04-26T03:46:04.185Z,66.09
2023-04-26T03:47:04.185Z,65.94
2023-04-26T03:48:04.293Z,66.31
2023-04-26T03:49:04.281Z,65.94
2023-04-26T03:50:04.376Z,66.26
2023-04-26T03:51:04.413Z,66.32
2023-04-26T03:52:04.436Z,66.50
2023-04-26T03:53:04.485Z,66.96
2023-04-26T03:54:04.515Z,67.21
2023-04-26T03:55:04.557Z,67.16
2023-04-26T03:56:04.604Z,66.97
2023-04-26T03:57:04.611Z,66.73
2023-04-26T03:58:04.714Z,66.99
2023-04-26T03:59:04.730Z,67.11
2023-04-26T04:00:04.832Z,67.52
2023-04-26T04:01:04.983Z,67.87
2023-04-26T04:02:05.039Z,68.16
2023-04-26T04:03:05.286Z,68.24
2023-04-26T04:04:05.328Z,68.44
2023-04-26T04:05:05.382Z,68.42
2023-04-26T04:06:05.362Z,68.61
2023-04-26T04:07:05.405Z,69.33
2023-04-26T04:08:05.462Z,69.18
2023-04-26T04:09:05.557Z,68.93
2023-04-26T04:10:05.657Z,69.37
2023-04-26T04:11:05.696Z,69.29
2023-04-26T04:12:05.821Z,69.15
2023-04-26T04:13:05.782Z,68.90
2023-04-26T04:14:05.805Z,68.86
2023-04-26T04:15:05.851Z,68.68
2023-04-26T04:16:05.908Z,68.42
2023-04-26T04:17:05.926Z,68.23
2023-04-26T04:18:06.020Z,68.38
2023-04-26T04:19:06.011Z,68.41
2023-04-26T04:20:06.108Z,68.19
2023-04-26T04:21:06.179Z,68.50
2023-04-26T04:22:06.262Z,68.36
2023-04-26T04:23:06.338Z,68.33
2023-04-26T04:24:06.387Z,68.26
2023-04-26T04:25:06.475Z,68.67
2023-04-26T04:26:06.555Z,68.79
2023-04-26T04:27:06.637Z,68.69
2023-04-26T04:28:06.787Z,69.25
2023-04-26T04:29:06.740Z,69.28
2023-04-26T04:30:06.849Z,68.81
2023-04-26T04:31:06.965Z,68.63
2023-04-26T04:32:06.993Z,68.54
2023-04-26T04:33:07.120Z,68.27
2023-04-26T04:34:07.158Z,68.98
2023-04-26T04:35:07.218Z,68.08
2023-04-26T04:36:07.247Z,68.25
2023-04-26T04:37:07.322Z,67.86
2023-04-26T04:38:07.382Z,67.98
2023-04-26T04:39:07.404Z,67.95
2023-04-26T04:40:09.011Z,67.91
2023-04-26T04:41:07.501Z,67.92
2023-04-26T04:42:07.549Z,67.87
2023-04-26T04:43:07.592Z,67.81
2023-04-26T04:44:07.696Z,67.99
2023-04-26T04:45:07.714Z,68.21
2023-04-26T04:46:08.463Z,68.54
2023-04-26T04:47:07.796Z,68.35
2023-04-26T04:48:07.920Z,68.81
2023-04-26T04:49:07.920Z,69.06
2023-04-26T04:50:07.953Z,69.04
2023-04-26T04:51:08.018Z,69.34
2023-04-26T04:52:08.033Z,69.16
2023-04-26T04:53:08.073Z,69.00
2023-04-26T04:54:08.101Z,69.12
2023-04-26T04:55:08.143Z,69.01
2023-04-26T04:56:08.192Z,69.23
2023-04-26T04:57:08.229Z,68.77
2023-04-26T04:58:08.280Z,69.11
2023-04-26T04:59:08.316Z,69.22
2023-04-26T05:00:08.401Z,68.96
2023-04-26T05:01:08.387Z,68.63
2023-04-26T05:02:08.469Z,69.07
2023-04-26T05:03:08.606Z,68.99
2023-04-26T05:04:08.672Z,69.15
2023-04-26T05:05:08.614Z,68.85
2023-04-26T05:06:08.581Z,68.69
2023-04-26T05:07:08.585Z,68.26
2023-04-26T05:08:08.621Z,68.15
2023-04-26T05:09:08.624Z,68.07
2023-04-26T05:10:08.646Z,68.09
2023-04-26T05:11:08.666Z,68.15
2023-04-26T05:12:08.709Z,67.85
2023-04-26T05:13:08.743Z,68.09
2023-04-26T05:14:08.748Z,68.02
2023-04-26T05:15:08.762Z,68.24
2023-04-26T05:16:08.890Z,68.26
2023-04-26T05:17:08.846Z,68.18
2023-04-26T05:18:08.923Z,67.98
2023-04-26T05:19:09.793Z,67.69
2023-04-26T05:20:08.925Z,67.77
2023-04-26T05:21:08.964Z,67.96
2023-04-26T05:22:09.023Z,68.25
2023-04-26T05:23:09.064Z,68.09
2023-04-26T05:24:09.095Z,68.30
2023-04-26T05:25:09.135Z,68.32
2023-04-26T05:26:10.161Z,68.77
2023-04-26T05:27:09.527Z,68.60
2023-04-26T05:28:09.301Z,68.31
2023-04-26T05:29:09.397Z,68.50
2023-04-26T05:30:09.528Z,68.31
2023-04-26T05:31:11.247Z,68.38
2023-04-26T05:32:09.794Z,69.10
2023-04-26T05:33:09.704Z,69.30
2023-04-26T05:34:09.732Z,68.25
2023-04-26T05:35:10.041Z,67.89
2023-04-26T05:36:09.801Z,67.76
2023-04-26T05:37:09.842Z,67.53
2023-04-26T05:38:09.878Z,68.49
2023-04-26T05:39:09.964Z,68.07
2023-04-26T05:40:10.063Z,68.05
2023-04-26T05:41:10.061Z,69.56
2023-04-26T05:42:10.134Z,69.37
2023-04-26T05:43:10.206Z,68.82
2023-04-26T05:44:10.266Z,68.36
2023-04-26T05:45:10.553Z,68.53
2023-04-26T05:46:10.476Z,68.41
2023-04-26T05:47:10.420Z,68.68
2023-04-26T05:48:11.175Z,68.74
2023-04-26T05:49:10.514Z,67.72
2023-04-26T05:50:11.024Z,68.21
2023-04-26T05:51:10.607Z,68.97
2023-04-26T05:52:10.685Z,68.29
2023-04-26T05:53:10.744Z,68.20
2023-04-26T05:54:12.012Z,68.70
2023-04-26T05:55:11.018Z,69.04
2023-04-26T05:56:10.882Z,68.49
2023-04-26T05:57:11.986Z,67.91
2023-04-26T05:58:10.987Z,68.49
2023-04-26T05:59:11.544Z,67.46
2023-04-26T06:00:11.190Z,67.56
2023-04-26T06:01:11.235Z,67.81
2023-04-26T06:02:11.654Z,67.29
2023-04-26T06:03:11.583Z,67.75
2023-04-26T06:04:11.983Z,69.16
2023-04-26T06:05:12.218Z,68.49
2023-04-26T06:06:11.605Z,67.81
2023-04-26T06:07:11.693Z,67.50
2023-04-26T06:08:12.039Z,67.77
2023-04-26T06:09:11.916Z,68.19
2023-04-26T06:10:12.522Z,68.56
2023-04-26T06:11:12.136Z,67.37
2023-04-26T06:12:12.280Z,67.27
2023-04-26T06:13:12.350Z,67.61
2023-04-26T06:14:26.964Z,68.48
2023-04-26T06:15:12.527Z,67.53
2023-04-26T06:16:13.069Z,68.30
2023-04-26T06:17:12.708Z,68.30
2023-04-26T06:18:12.798Z,69.08
2023-04-26T06:19:12.800Z,69.10
2023-04-26T06:20:14.229Z,69.52
2023-04-26T06:21:12.958Z,68.95
2023-04-26T06:22:12.996Z,68.32
2023-04-26T06:23:13.043Z,67.62
2023-04-26T06:24:16.316Z,68.03
2023-04-26T06:25:13.565Z,67.41
2023-04-26T06:26:13.567Z,68.21
2023-04-26T06:27:13.239Z,67.34
2023-04-26T06:28:13.296Z,66.88
2023-04-26T06:29:13.365Z,67.30
2023-04-26T06:30:13.417Z,67.00
2023-04-26T06:31:13.582Z,66.73
2023-04-26T06:32:13.533Z,66.37
2023-04-26T06:33:13.583Z,66.90
2023-04-26T06:35:13.033Z,67.16
2023-04-26T06:36:13.791Z,66.37
2023-04-26T06:37:14.036Z,67.37
2023-04-26T06:38:13.875Z,67.14
2023-04-26T06:39:13.928Z,67.86
2023-04-26T06:40:14.028Z,67.40
2023-04-26T06:41:14.034Z,66.55
2023-04-26T06:42:14.063Z,65.78
2023-04-26T06:43:14.093Z,65.62
2023-04-26T06:44:14.110Z,65.42
2023-04-26T06:45:14.533Z,65.58
2023-04-26T06:46:14.177Z,64.87
2023-04-26T06:47:14.171Z,64.23
2023-04-26T06:48:14.317Z,64.59
2023-04-26T06:49:14.279Z,64.55
2023-04-26T06:50:14.553Z,64.89
2023-04-26T06:51:14.373Z,65.31
2023-04-26T06:52:14.402Z,65.11
2023-04-26T06:53:14.411Z,65.25
2023-04-26T06:54:15.134Z,64.67
2023-04-26T06:55:14.541Z,64.15
2023-04-26T06:56:14.894Z,64.96
2023-04-26T06:57:14.632Z,64.79
2023-04-26T06:58:14.707Z,64.17
2023-04-26T06:59:14.738Z,64.42
2023-04-26T07:00:15.070Z,63.75
2023-04-26T07:01:14.883Z,63.23
2023-04-26T07:02:15.849Z,62.73
2023-04-26T07:03:15.147Z,62.22
2023-04-26T07:04:15.538Z,62.05
2023-04-26T07:05:15.315Z,63.28
2023-04-26T07:06:15.182Z,63.39
2023-04-26T07:07:15.242Z,64.70
2023-04-26T07:08:15.949Z,63.94
2023-04-26T07:09:15.483Z,64.53
2023-04-26T07:10:15.405Z,61.79
2023-04-26T07:11:15.529Z,63.78
2023-04-26T07:12:15.557Z,63.75
2023-04-26T07:13:16.055Z,64.24
2023-04-26T07:14:15.683Z,64.13
2023-04-26T07:15:15.749Z,64.14
2023-04-26T07:16:15.897Z,63.81
2023-04-26T07:17:15.958Z,63.17
2023-04-26T07:18:16.152Z,62.73
2023-04-26T07:19:16.579Z,63.09
2023-04-26T07:20:16.213Z,62.86
2023-04-26T07:21:16.347Z,65.30
2023-04-26T07:22:16.431Z,64.27
2023-04-26T07:23:16.543Z,64.56
2023-04-26T07:24:16.706Z,64.95
2023-04-26T07:25:16.651Z,66.29
2023-04-26T07:26:16.710Z,65.70
2023-04-26T07:27:17.001Z,65.39
2023-04-26T07:28:17.040Z,66.18
2023-04-26T07:29:16.977Z,67.87
2023-04-26T07:30:17.071Z,66.58
2023-04-26T07:31:17.745Z,68.27
2023-04-26T07:32:17.398Z,67.07
2023-04-26T07:33:17.741Z,68.15
2023-04-26T07:34:17.500Z,68.08
2023-04-26T07:35:17.579Z,67.30
2023-04-26T07:36:17.687Z,66.53
2023-04-26T07:37:17.821Z,66.64
2023-04-26T07:38:18.039Z,66.41
2023-04-26T07:39:18.021Z,65.93
2023-04-26T07:40:18.602Z,66.77
2023-04-26T07:41:18.238Z,67.68
2023-04-26T07:42:18.311Z,67.28
2023-04-26T07:43:18.409Z,67.72
2023-04-26T07:44:18.464Z,64.70
2023-04-26T07:45:18.542Z,66.33
2023-04-26T07:46:18.805Z,64.89
2023-04-26T07:47:18.694Z,63.49
2023-04-26T07:48:18.782Z,62.19
2023-04-26T07:49:18.831Z,60.88
2023-04-26T07:50:19.102Z,61.06
2023-04-26T07:51:19.015Z,61.59
2023-04-26T07:52:19.078Z,61.55
2023-04-26T07:53:19.467Z,59.74
2023-04-26T07:54:19.268Z,61.33
2023-04-26T07:55:19.632Z,60.98
2023-04-26T07:56:19.509Z,61.83
2023-04-26T07:57:19.542Z,63.24
2023-04-26T07:58:19.635Z,62.32
2023-04-26T07:59:19.765Z,61.42
2023-04-26T08:00:20.102Z,61.52
2023-04-26T08:01:19.883Z,61.01
2023-04-26T08:02:24.945Z,60.35
2023-04-26T08:03:20.182Z,61.79
2023-04-26T08:04:20.233Z,62.82
2023-04-26T08:05:20.420Z,62.05
2023-04-26T08:06:20.254Z,60.95
2023-04-26T08:07:20.098Z,59.91
2023-04-26T08:08:20.126Z,60.15
2023-04-26T08:09:20.177Z,59.35
2023-04-26T08:10:20.543Z,60.13
2023-04-26T08:11:20.671Z,60.05
2023-04-26T08:12:20.309Z,59.64
2023-04-26T08:13:20.250Z,60.82
2023-04-26T08:14:20.289Z,61.63
2023-04-26T08:15:20.556Z,60.21
2023-04-26T08:16:20.332Z,59.66
2023-04-26T08:17:20.311Z,60.16
2023-04-26T08:18:20.317Z,59.93
2023-04-26T08:19:20.363Z,59.10
2023-04-26T08:20:20.578Z,60.51
2023-04-26T08:21:20.427Z,58.89
2023-04-26T08:22:20.474Z,60.04
2023-04-26T08:23:20.516Z,62.19
2023-04-26T08:24:20.571Z,61.03
2023-04-26T08:25:21.051Z,59.79
2023-04-26T08:26:21.043Z,60.15
2023-04-26T08:27:20.682Z,59.50
2023-04-26T08:28:20.829Z,60.77
2023-04-26T08:29:20.808Z,58.96
2023-04-26T08:30:20.909Z,58.65
2023-04-26T08:31:21.070Z,58.08
2023-04-26T08:32:21.028Z,59.18
2023-04-26T08:33:21.105Z,59.94
2023-04-26T08:34:21.169Z,57.98
2023-04-26T08:35:21.640Z,58.16
2023-04-26T08:36:21.390Z,59.30
2023-04-26T08:37:21.603Z,58.90
2023-04-26T08:38:21.493Z,59.18
2023-04-26T08:39:21.583Z,58.15
2023-04-26T08:40:22.207Z,57.50
2023-04-26T08:41:22.059Z,58.87
2023-04-26T08:42:21.819Z,59.11
2023-04-26T08:43:21.864Z,58.23
2023-04-26T08:44:22.241Z,60.76
2023-04-26T08:45:25.287Z,59.58
2023-04-26T08:46:22.160Z,58.76
2023-04-26T08:47:22.019Z,55.94
2023-04-26T08:48:22.058Z,55.35
2023-04-26T08:49:22.051Z,56.86
2023-04-26T08:50:22.595Z,56.54
2023-04-26T08:51:22.100Z,57.99
2023-04-26T08:52:22.112Z,55.81
2023-04-26T08:53:22.141Z,56.26
2023-04-26T08:54:22.172Z,56.53
2023-04-26T08:55:22.578Z,56.05
2023-04-26T08:56:22.195Z,55.24
2023-04-26T08:57:22.224Z,54.56
2023-04-26T08:58:22.690Z,54.08
2023-04-26T08:59:22.245Z,54.72
2023-04-26T09:00:22.419Z,56.00
2023-04-26T09:01:23.050Z,57.24
2023-04-26T09:02:22.514Z,56.38
2023-04-26T09:03:22.504Z,56.47
2023-04-26T09:04:22.689Z,56.55
2023-04-26T09:05:22.448Z,58.28
2023-04-26T09:06:22.555Z,56.70
2023-04-26T09:07:22.655Z,55.89
2023-04-26T09:08:22.627Z,57.67
2023-04-26T09:09:22.742Z,58.54
2023-04-26T09:10:22.975Z,58.70
2023-04-26T09:11:22.942Z,61.44
2023-04-26T09:12:23.084Z,62.87
2023-04-26T09:13:23.267Z,60.14
2023-04-26T09:14:23.175Z,59.06
2023-04-26T09:15:23.246Z,57.46
2023-04-26T09:16:23.506Z,57.92
2023-04-26T09:17:23.399Z,55.29
2023-04-26T09:18:23.509Z,54.54
2023-04-26T09:19:23.549Z,55.56
2023-04-26T09:20:23.626Z,54.09
2023-04-26T09:21:24.070Z,55.69
2023-04-26T09:22:23.708Z,54.06
2023-04-26T09:23:23.762Z,54.83
2023-04-26T09:24:24.067Z,54.98
2023-04-26T09:25:24.509Z,54.98
2023-04-26T09:26:23.960Z,54.27
2023-04-26T09:27:24.023Z,52.89
2023-04-26T09:28:24.075Z,53.26
2023-04-26T09:29:24.569Z,51.99
2023-04-26T09:30:24.141Z,49.45
2023-04-26T09:31:24.583Z,50.43
2023-04-26T09:32:24.342Z,50.70
2023-04-26T09:33:24.553Z,51.53
2023-04-26T09:34:24.383Z,51.93
2023-04-26T09:35:24.438Z,51.44
2023-04-26T09:36:24.558Z,50.34
2023-04-26T09:37:24.484Z,50.48
2023-04-26T09:38:24.491Z,51.07
2023-04-26T09:39:24.520Z,52.49
2023-04-26T09:40:24.559Z,52.28
2023-04-26T09:41:25.096Z,46.17
2023-04-26T09:42:24.773Z,46.47
2023-04-26T09:43:24.698Z,49.41
2023-04-26T09:44:24.684Z,48.54
2023-04-26T09:45:24.742Z,47.19
2023-04-26T09:46:24.825Z,48.02
2023-04-26T09:47:25.044Z,49.02
2023-04-26T09:48:24.798Z,48.39
2023-04-26T09:49:25.115Z,46.83
2023-04-26T09:50:24.765Z,46.26
2023-04-26T09:51:25.126Z,45.34
2023-04-26T09:52:24.816Z,45.50
2023-04-26T09:53:24.818Z,45.74
2023-04-26T09:54:24.839Z,44.48
2023-04-26T09:55:34.187Z,44.11
2023-04-26T09:56:26.747Z,44.52
2023-04-26T09:57:24.823Z,45.02
2023-04-26T09:58:24.801Z,45.61
2023-04-26T09:59:24.752Z,45.22
2023-04-26T10:00:25.059Z,45.62
2023-04-26T10:01:26.797Z,48.07
2023-04-26T10:02:25.067Z,46.73
2023-04-26T10:03:24.940Z,46.62
2023-04-26T10:04:24.877Z,48.13
2023-04-26T10:05:24.756Z,47.62
2023-04-26T10:06:25.078Z,47.26
2023-04-26T10:07:25.481Z,48.30
2023-04-26T10:08:24.757Z,45.58
2023-04-26T10:09:24.745Z,45.69
2023-04-26T10:10:24.736Z,45.16
2023-04-26T10:11:25.834Z,44.79
2023-04-26T10:12:24.862Z,45.80
2023-04-26T10:13:25.583Z,45.67
2023-04-26T10:14:25.876Z,45.37
2023-04-26T10:15:25.791Z,45.99
2023-04-26T10:16:25.289Z,45.56
2023-04-26T10:17:26.790Z,45.10
2023-04-26T10:18:25.706Z,44.97
2023-04-26T10:19:24.845Z,42.26
2023-04-26T10:20:25.605Z,44.22
2023-04-26T10:21:24.762Z,47.26
2023-04-26T10:22:25.229Z,44.61
2023-04-26T10:23:24.727Z,43.44
2023-04-26T10:24:25.738Z,43.69
2023-04-26T10:25:24.678Z,43.56
2023-04-26T10:26:25.067Z,42.36
2023-04-26T10:27:24.613Z,43.14
2023-04-26T10:28:24.575Z,41.84
2023-04-26T10:29:24.523Z,42.61
2023-04-26T10:30:24.893Z,43.03
2023-04-26T10:31:24.993Z,42.84
2023-04-26T10:32:24.424Z,42.60
2023-04-26T10:33:24.876Z,42.84
2023-04-26T10:34:24.820Z,41.88
2023-04-26T10:35:24.765Z,43.16
2023-04-26T10:36:25.038Z,42.39
2023-04-26T10:37:24.614Z,44.31
2023-04-26T10:38:24.576Z,43.46
2023-04-26T10:39:24.748Z,42.92
2023-04-26T10:40:24.747Z,44.48
2023-04-26T10:41:24.718Z,43.53
2023-04-26T10:42:26.098Z,42.28
2023-04-26T10:43:26.128Z,42.07
2023-04-26T10:44:24.729Z,41.87
2023-04-26T10:45:24.819Z,42.27
2023-04-26T10:46:24.511Z,42.47
2023-04-26T10:47:24.998Z,41.37
2023-04-26T10:48:24.615Z,41.22
2023-04-26T10:49:26.557Z,40.78
2023-04-26T10:50:24.092Z,40.74
2023-04-26T10:51:24.075Z,42.47
2023-04-26T10:52:24.453Z,40.99
2023-04-26T10:53:23.983Z,41.24
2023-04-26T10:54:23.952Z,42.08
2023-04-26T10:55:25.401Z,42.29
2023-04-26T10:56:24.212Z,40.41
2023-04-26T10:57:24.179Z,39.47
2023-04-26T10:58:23.989Z,38.85
2023-04-26T10:59:39.967Z,39.44
2023-04-26T11:00:23.919Z,40.35
2023-04-26T11:01:23.929Z,41.11
2023-04-26T11:02:24.376Z,40.43
2023-04-26T11:03:24.341Z,39.92
2023-04-26T11:04:23.855Z,42.98
2023-04-26T11:05:25.352Z,39.27
2023-04-26T11:06:24.077Z,39.88
2023-04-26T11:07:23.984Z,39.29
2023-04-26T11:08:24.145Z,39.31
2023-04-26T11:09:23.959Z,39.83
2023-04-26T11:10:23.985Z,39.00
2023-04-26T11:11:24.082Z,42.20
2023-04-26T11:12:24.040Z,37.72
2023-04-26T11:13:24.055Z,38.34
2023-04-26T11:14:24.084Z,39.09
2023-04-26T11:15:24.130Z,39.04
2023-04-26T11:16:24.912Z,39.66
2023-04-26T11:17:24.867Z,38.83
2023-04-26T11:18:24.207Z,38.04
2023-04-26T11:19:24.220Z,37.86
2023-04-26T11:20:24.266Z,38.05
2023-04-26T11:21:24.226Z,37.94
2023-04-26T11:22:24.200Z,38.34
2023-04-26T11:23:24.200Z,37.57
2023-04-26T11:24:24.340Z,37.78
2023-04-26T11:25:24.238Z,37.28
2023-04-26T11:26:24.220Z,38.07
2023-04-26T11:27:24.251Z,39.73
2023-04-26T11:28:24.264Z,40.29
2023-04-26T11:29:24.247Z,37.69
2023-04-26T11:30:24.633Z,39.26
2023-04-26T11:31:24.315Z,38.35
2023-04-26T11:32:24.646Z,39.90
2023-04-26T11:33:24.238Z,38.48
2023-04-26T11:34:24.214Z,37.28
2023-04-26T11:35:24.229Z,37.83
2023-04-26T11:36:24.587Z,38.60
2023-04-26T11:37:24.269Z,37.97
2023-04-26T11:38:24.276Z,39.26
2023-04-26T11:39:24.302Z,39.11
2023-04-26T11:40:24.354Z,39.50
2023-04-26T11:41:24.700Z,41.54
2023-04-26T11:42:24.334Z,41.22
2023-04-26T11:43:24.387Z,39.97
2023-04-26T11:44:24.390Z,38.37
2023-04-26T11:45:24.350Z,38.72
2023-04-26T11:46:24.397Z,37.57
2023-04-26T11:47:24.346Z,37.55
2023-04-26T11:48:24.378Z,37.34
2023-04-26T11:49:24.341Z,38.66
2023-04-26T11:50:24.321Z,38.91
2023-04-26T11:51:24.260Z,39.87
2023-04-26T11:52:24.309Z,39.97
2023-04-26T11:53:24.223Z,39.51
2023-04-26T11:54:24.214Z,39.85
2023-04-26T11:55:24.253Z,39.12
2023-04-26T11:56:24.459Z,40.01
2023-04-26T11:57:24.291Z,39.56
2023-04-26T11:58:24.297Z,40.85
2023-04-26T11:59:24.296Z,37.41
2023-04-26T12:00:24.602Z,37.36
2023-04-26T12:01:24.658Z,38.01
2023-04-26T12:02:24.523Z,36.65
2023-04-26T12:03:24.782Z,39.29
2023-04-26T12:04:25.508Z,39.83
2023-04-26T12:05:24.533Z,38.76
2023-04-26T12:06:24.347Z,39.33
2023-04-26T12:07:24.310Z,39.63
2023-04-26T12:08:24.618Z,41.70
2023-04-26T12:09:24.253Z,41.54
2023-04-26T12:10:24.215Z,40.63
2023-04-26T12:11:24.484Z,42.98
2023-04-26T12:12:24.196Z,42.56
2023-04-26T12:13:24.154Z,42.01
2023-04-26T12:14:24.136Z,41.92
2023-04-26T12:15:24.116Z,42.33
2023-04-26T12:16:26.584Z,42.80
2023-04-26T12:17:24.166Z,43.60
2023-04-26T12:18:24.095Z,43.87
2023-04-26T12:19:24.021Z,42.25
2023-04-26T12:20:24.013Z,41.37
2023-04-26T12:21:23.991Z,42.60
2023-04-26T12:22:24.003Z,42.72
2023-04-26T12:23:23.965Z,41.99
2023-04-26T12:24:23.962Z,41.81
2023-04-26T12:25:23.937Z,42.25
2023-04-26T12:26:23.908Z,42.87
2023-04-26T12:27:24.102Z,42.61
2023-04-26T12:28:23.919Z,42.70
2023-04-26T12:29:23.847Z,44.15
2023-04-26T12:30:23.843Z,43.30
2023-04-26T12:31:23.848Z,43.54
2023-04-26T12:32:24.097Z,41.89
2023-04-26T12:33:23.833Z,42.88
2023-04-26T12:34:23.792Z,41.66
2023-04-26T12:35:23.762Z,42.74
2023-04-26T12:36:24.099Z,41.93
2023-04-26T12:37:23.702Z,41.70
2023-04-26T12:38:23.693Z,41.87
2023-04-26T12:39:23.663Z,42.25
2023-04-26T12:40:23.630Z,40.82
2023-04-26T12:41:23.653Z,41.21
2023-04-26T12:42:23.562Z,42.94
2023-04-26T12:43:23.545Z,41.58
2023-04-26T12:44:23.624Z,40.65
2023-04-26T12:45:23.559Z,41.24
2023-04-26T12:46:23.617Z,41.52
2023-04-26T12:47:23.578Z,42.11
2023-04-26T12:48:23.460Z,42.23
2023-04-26T12:49:26.831Z,41.42
2023-04-26T12:50:28.633Z,40.67
2023-04-26T12:51:23.372Z,41.96
2023-04-26T12:52:23.622Z,40.57
2023-04-26T12:53:25.740Z,40.41
2023-04-26T12:54:29.256Z,41.94